Time;durP1;ratioP1;P1;durP2;ratioP2;P2;SDS_P1;SDS_P2;PMS_P1;PMS_P2;Temp;Humidity;BMP_temperature;BMP_pressure;BME280_temperature;BME280_humidity;BME280_pressure;Samples;Min_cycle;Max_cycle;Signal;HPM_P1;HPM_P2
2022/08/22 00:00:30;;;;;;;14.98;11.83;;;;;;;19.08;100.00;98273.20;2185232;81;20996;-89
2022/08/22 00:03:32;;;;;;;15.20;11.55;;;;;;;19.09;100.00;98275.33;2180706;81;21033;-90
2022/08/22 00:06:33;;;;;;;14.13;12.47;;;;;;;19.07;100.00;98272.13;2188127;80;21523;-87
2022/08/22 00:09:33;;;;;;;11.55;10.45;;;;;;;19.01;100.00;98274.69;2224150;80;21045;-88
2022/08/22 00:12:34;;;;;;;12.23;11.03;;;;;;;19.00;100.00;98270.97;2183863;80;21006;-87
2022/08/22 00:15:34;;;;;;;12.65;11.35;;;;;;;18.98;100.00;98271.73;2173065;81;21501;-88
2022/08/22 00:18:35;;;;;;;12.18;11.10;;;;;;;18.98;100.00;98273.06;2172073;82;20994;-88
2022/08/22 00:21:36;;;;;;;12.28;11.08;;;;;;;18.94;100.00;98270.11;2172223;82;21511;-87
2022/08/22 00:27:41;;;;;;;11.20;10.20;;;;;;;18.87;100.00;98262.03;2123956;84;21072;-88
2022/08/22 00:30:41;;;;;;;12.40;11.15;;;;;;;18.82;100.00;98272.03;2101368;84;21057;-88
2022/08/22 00:33:42;;;;;;;11.45;10.43;;;;;;;18.78;100.00;98267.48;2089144;85;22395;-88
2022/08/22 00:36:43;;;;;;;12.88;10.72;;;;;;;18.70;100.00;98264.70;2089305;85;21056;-89
2022/08/22 00:39:44;;;;;;;12.35;11.20;;;;;;;18.64;100.00;98259.00;2088854;85;20966;-89
2022/08/22 00:42:44;;;;;;;12.20;11.00;;;;;;;18.55;100.00;98257.28;2089079;85;21092;-88
2022/08/22 00:45:45;;;;;;;10.32;9.50;;;;;;;18.46;100.00;98255.55;2088803;85;21048;-89
2022/08/22 00:48:46;;;;;;;11.68;10.58;;;;;;;18.38;100.00;98257.83;2088945;85;21026;-88
2022/08/22 00:51:47;;;;;;;11.30;10.28;;;;;;;18.31;100.00;98261.95;2089235;85;21028;-88
2022/08/22 00:54:47;;;;;;;11.18;10.08;;;;;;;18.25;100.00;98256.80;2089143;85;20985;-87
2022/08/22 00:57:48;;;;;;;10.78;9.25;;;;;;;18.19;100.00;98257.22;2089058;85;21556;-87
2022/08/22 01:00:49;;;;;;;11.03;9.98;;;;;;;18.14;100.00;98258.48;2088972;85;20997;-87
2022/08/22 01:03:50;;;;;;;10.40;9.40;;;;;;;18.08;100.00;98261.55;2089400;85;21005;-87
2022/08/22 01:06:50;;;;;;;11.18;10.00;;;;;;;18.02;100.00;98263.84;2089222;85;21369;-87
2022/08/22 01:09:54;;;;;;;9.93;9.03;;;;;;;17.95;100.00;98257.09;2089201;85;21009;-88
2022/08/22 01:12:54;;;;;;;10.80;9.08;;;;;;;17.90;100.00;98263.88;2088971;85;21088;-87
2022/08/22 01:15:55;;;;;;;10.35;9.45;;;;;;;17.86;100.00;98261.96;2088990;85;21496;-89
2022/08/22 01:18:56;;;;;;;10.38;9.38;;;;;;;17.82;100.00;98257.64;2089168;85;20950;-87
2022/08/22 01:21:57;;;;;;;9.48;8.58;;;;;;;17.80;100.00;98265.02;2089370;85;21121;-88
2022/08/22 01:28:09;;;;;;;10.05;9.15;;;;;;;17.76;100.00;98265.23;2068485;85;21147;-88
2022/08/22 01:31:10;;;;;;;9.93;8.60;;;;;;;17.68;100.00;98264.77;2068477;86;21072;-88
2022/08/22 01:34:10;;;;;;;10.72;9.68;;;;;;;17.62;100.00;98263.33;2085458;85;21041;-90
2022/08/22 01:37:11;;;;;;;10.50;9.50;;;;;;;17.59;100.00;98265.66;2088042;85;21514;-88
2022/08/22 01:40:12;;;;;;;11.40;10.40;;;;;;;17.54;100.00;98264.22;2087223;85;21026;-88
2022/08/22 01:43:13;;;;;;;10.15;9.15;;;;;;;17.51;100.00;98264.18;2087964;85;21077;-88
2022/08/22 01:46:14;;;;;;;10.68;9.68;;;;;;;17.46;100.00;98272.00;2087850;85;21015;-87
2022/08/22 01:49:15;;;;;;;10.70;9.60;;;;;;;17.41;100.00;98266.62;2087826;85;21738;-87
2022/08/22 01:52:15;;;;;;;10.48;9.48;;;;;;;17.37;100.00;98262.02;2087966;85;21042;-87
2022/08/22 01:55:16;;;;;;;11.33;10.13;;;;;;;17.31;100.00;98259.81;2088053;85;22179;-88
2022/08/22 01:58:17;;;;;;;10.28;9.23;;;;;;;17.27;100.00;98256.81;2087851;85;21066;-87
2022/08/22 02:01:18;;;;;;;10.48;9.55;;;;;;;17.21;100.00;98260.92;2087869;85;21510;-88
2022/08/22 02:04:19;;;;;;;10.25;9.23;;;;;;;17.19;100.00;98264.30;2126751;81;21036;-89
2022/08/22 02:07:20;;;;;;;27.62;10.70;;;;;;;17.12;100.00;98262.32;2185308;81;20954;-87
2022/08/22 02:10:21;;;;;;;11.05;9.95;;;;;;;17.13;100.00;98267.89;2185348;81;21572;-88
2022/08/22 02:13:22;;;;;;;10.63;9.63;;;;;;;17.12;100.00;98267.09;2185425;81;21596;-87
2022/08/22 02:16:23;;;;;;;23.50;10.70;;;;;;;17.13;100.00;98273.19;2185639;81;21004;-88
2022/08/22 02:19:24;;;;;;;8.88;7.97;;;;;;;17.05;100.00;98277.78;2185462;81;20969;-88
2022/08/22 02:22:24;;;;;;;11.80;10.80;;;;;;;16.94;100.00;98279.92;2185549;81;20984;-87
2022/08/22 02:25:25;;;;;;;12.37;11.05;;;;;;;16.84;100.00;98274.41;2185418;81;21028;-87
2022/08/22 02:28:26;;;;;;;12.33;11.15;;;;;;;16.81;100.00;98288.59;2185378;81;20990;-87
2022/08/22 02:31:26;;;;;;;13.32;10.60;;;;;;;16.82;100.00;98280.42;2185451;81;21001;-88
2022/08/22 02:34:27;;;;;;;12.23;11.05;;;;;;;16.84;100.00;98279.70;2185425;81;20966;-89
2022/08/22 02:37:28;;;;;;;10.93;9.83;;;;;;;16.83;100.00;98273.33;2153503;81;20937;-88
2022/08/22 02:40:29;;;;;;;12.43;10.82;;;;;;;16.82;100.00;98283.06;2185056;80;21084;-86
2022/08/22 02:43:30;;;;;;;12.63;11.38;;;;;;;16.82;100.00;98279.10;2185279;81;21016;-88
2022/08/22 02:46:32;;;;;;;10.80;9.70;;;;;;;16.82;100.00;98280.94;2185422;80;21575;-87
2022/08/22 02:49:33;;;;;;;12.00;10.80;;;;;;;16.80;100.00;98277.73;2185389;81;21530;-87
2022/08/22 02:52:34;;;;;;;11.60;10.43;;;;;;;16.77;100.00;98277.16;2185445;80;21084;-88
2022/08/22 02:55:34;;;;;;;11.53;10.32;;;;;;;16.75;100.00;98277.11;2185376;81;21125;-87
2022/08/22 02:58:35;;;;;;;10.68;9.65;;;;;;;16.73;100.00;98280.48;2185380;81;21552;-87
2022/08/22 03:01:36;;;;;;;12.15;10.43;;;;;;;16.71;100.00;98283.36;2185242;81;21540;-88
2022/08/22 03:04:37;;;;;;;11.68;10.45;;;;;;;16.71;100.00;98285.20;2185399;81;21504;-87
2022/08/22 03:07:37;;;;;;;12.47;11.22;;;;;;;16.70;100.00;98283.59;2185358;81;21536;-86
2022/08/22 03:10:38;;;;;;;11.22;10.23;;;;;;;16.66;100.00;98281.09;2184986;81;21590;-88
2022/08/22 03:13:40;;;;;;;11.57;10.53;;;;;;;16.65;100.00;98284.78;2185254;81;21073;-87
2022/08/22 03:16:40;;;;;;;12.23;10.98;;;;;;;16.62;100.00;98288.66;2185282;81;21845;-88
2022/08/22 03:19:41;;;;;;;12.50;11.08;;;;;;;16.59;100.00;98289.13;2185349;81;20997;-88
2022/08/22 03:22:42;;;;;;;13.25;11.22;;;;;;;16.60;100.00;98285.45;2185162;81;20966;-87
2022/08/22 03:25:43;;;;;;;12.60;11.33;;;;;;;16.58;100.00;98284.08;2185277;81;21029;-88
2022/08/22 03:28:43;;;;;;;12.43;10.85;;;;;;;16.58;100.00;98281.44;2185255;81;20983;-88
2022/08/22 03:31:44;;;;;;;13.25;11.85;;;;;;;16.59;100.00;98285.16;2184994;81;21560;-88
2022/08/22 03:34:46;;;;;;;12.70;11.40;;;;;;;16.62;100.00;98291.83;2184976;81;21105;-88
2022/08/22 03:37:46;;;;;;;14.45;11.35;;;;;;;16.65;100.00;98286.10;2185153;81;21033;-89
2022/08/22 03:40:47;;;;;;;12.70;11.40;;;;;;;16.69;100.00;98296.52;2184978;81;21060;-88
2022/08/22 03:43:48;;;;;;;14.40;11.85;;;;;;;16.72;100.00;98286.80;2185437;81;20939;-88
2022/08/22 03:46:49;;;;;;;11.70;10.50;;;;;;;16.75;100.00;98292.45;2185438;81;21004;-89
2022/08/22 03:49:51;;;;;;;12.43;11.22;;;;;;;16.77;100.00;98289.58;2185178;81;21073;-88
2022/08/22 03:53:07;;;;;;;11.65;10.55;;;;;;;16.80;100.00;98293.08;2185252;81;21064;-88
2022/08/22 03:56:07;;;;;;;11.63;10.53;;;;;;;16.84;100.00;98286.83;2185593;81;20996;-87
2022/08/22 03:59:08;;;;;;;11.83;10.68;;;;;;;16.87;100.00;98283.72;2185232;80;21103;-88
2022/08/22 04:02:09;;;;;;;12.53;10.95;;;;;;;16.91;100.00;98286.98;2185354;81;21483;-87
2022/08/22 04:05:12;;;;;;;11.85;10.70;;;;;;;16.95;100.00;98288.66;2185165;81;20954;-89
2022/08/22 04:08:12;;;;;;;12.28;9.85;;;;;;;17.11;100.00;98299.06;2185148;80;22131;-88
2022/08/22 04:11:14;;;;;;;12.82;10.70;;;;;;;17.21;100.00;98290.83;2185556;81;21010;-89
2022/08/22 04:14:15;;;;;;;10.53;9.68;;;;;;;17.31;100.00;98293.69;2185206;81;21020;-88
2022/08/22 04:17:15;;;;;;;12.00;10.90;;;;;;;17.41;100.00;98298.91;2185340;81;20973;-88
2022/08/22 04:20:17;;;;;;;11.35;10.25;;;;;;;17.48;100.00;98298.27;2185462;81;21683;-87
2022/08/22 04:23:17;;;;;;;12.23;10.70;;;;;;;17.50;100.00;98303.59;2184728;81;20990;-87
2022/08/22 04:26:21;;;;;;;11.28;9.85;;;;;;;17.55;100.00;98298.39;2183363;81;21551;-88
2022/08/22 04:29:21;;;;;;;13.00;10.53;;;;;;;17.62;100.00;98303.04;2182706;81;21052;-86
2022/08/22 04:32:24;;;;;;;11.90;10.80;;;;;;;17.67;100.00;98301.55;2184076;81;20977;-87
2022/08/22 04:35:24;;;;;;;12.07;10.98;;;;;;;17.76;100.00;98300.17;2185018;81;21472;-86
2022/08/22 04:38:25;;;;;;;12.20;10.35;;;;;;;17.79;100.00;98292.55;2185054;81;20992;-86
2022/08/22 04:41:26;;;;;;;11.80;10.70;;;;;;;17.85;100.00;98301.41;2185347;81;21041;-86
2022/08/22 04:44:27;;;;;;;11.08;10.05;;;;;;;17.90;100.00;98308.91;2185492;81;21012;-87
2022/08/22 04:47:28;;;;;;;12.53;11.22;;;;;;;17.96;100.00;98306.36;2185255;81;20954;-86
2022/08/22 04:50:28;;;;;;;12.60;10.35;;;;;;;18.00;100.00;98310.13;2185478;80;21018;-85
2022/08/22 04:53:30;;;;;;;11.45;10.35;;;;;;;18.03;100.00;98307.84;2185726;81;20981;-84
2022/08/22 04:56:31;;;;;;;12.45;11.08;;;;;;;18.09;100.00;98305.55;2185804;81;21020;-89
2022/08/22 04:59:31;;;;;;;10.93;9.80;;;;;;;18.14;100.00;98313.59;2186308;81;21088;-84
2022/08/22 05:02:35;;;;;;;11.70;10.60;;;;;;;18.24;100.00;98318.79;2185151;81;21024;-85
2022/08/22 05:05:35;;;;;;;11.85;10.65;;;;;;;18.33;100.00;98312.86;2185206;81;21043;-85
2022/08/22 05:08:35;;;;;;;12.95;11.65;;;;;;;18.49;100.00;98313.94;2185448;81;20987;-85
2022/08/22 05:11:36;;;;;;;14.60;13.25;;;;;;;18.72;100.00;98309.81;2185231;81;21115;-86
2022/08/22 05:14:37;;;;;;;13.18;11.88;;;;;;;18.80;100.00;98315.77;2185230;81;21499;-88
2022/08/22 05:17:38;;;;;;;10.25;9.30;;;;;;;18.84;100.00;98327.52;2185323;81;21555;-86
2022/08/22 05:20:39;;;;;;;11.78;10.68;;;;;;;18.81;100.00;98322.15;2185337;80;21051;-87
2022/08/22 05:23:39;;;;;;;11.33;10.18;;;;;;;18.80;100.00;98321.07;2185290;81;21464;-86
2022/08/22 05:26:40;;;;;;;11.63;10.43;;;;;;;18.82;100.00;98330.38;2185239;80;20981;-87
2022/08/22 05:29:41;;;;;;;11.12;10.03;;;;;;;18.80;100.00;98332.48;2185120;81;21063;-88
2022/08/22 05:32:42;;;;;;;11.93;10.70;;;;;;;18.80;100.00;98336.98;2185389;81;20961;-86
2022/08/22 05:35:43;;;;;;;12.07;10.70;;;;;;;18.79;100.00;98340.69;2185424;81;21016;-86
2022/08/22 05:38:44;;;;;;;12.05;10.98;;;;;;;18.79;100.00;98342.81;2185158;81;20973;-86
2022/08/22 05:41:45;;;;;;;12.28;11.05;;;;;;;18.78;100.00;98346.52;2185305;81;21008;-87
2022/08/22 05:44:46;;;;;;;11.73;10.45;;;;;;;18.81;100.00;98347.87;2185139;81;21000;-86
2022/08/22 05:47:47;;;;;;;10.90;9.80;;;;;;;18.83;100.00;98353.73;2185149;81;21020;-85
2022/08/22 05:50:48;;;;;;;11.38;10.30;;;;;;;18.87;100.00;98349.56;2185200;81;21160;-85
2022/08/22 05:53:49;;;;;;;12.35;11.15;;;;;;;18.93;100.00;98357.37;2185272;81;21540;-84
2022/08/22 05:56:50;;;;;;;20.85;17.00;;;;;;;18.93;100.00;98364.00;2185272;81;21476;-83
2022/08/22 05:59:50;;;;;;;17.15;14.83;;;;;;;18.97;100.00;98362.98;2185139;81;21055;-82
2022/08/22 06:02:52;;;;;;;16.45;14.35;;;;;;;19.02;100.00;98365.73;2185299;81;20977;-83
2022/08/22 06:05:53;;;;;;;13.68;12.28;;;;;;;19.08;100.00;98366.59;2185343;81;21504;-82
2022/08/22 06:08:53;;;;;;;14.60;12.82;;;;;;;19.13;100.00;98371.98;2185267;81;21001;-83
2022/08/22 06:11:54;;;;;;;12.98;11.68;;;;;;;19.23;100.00;98368.16;2185426;81;20984;-83
2022/08/22 06:17:57;;;;;;;12.55;11.35;;;;;;;19.43;100.00;98377.72;2085204;85;21030;-83
2022/08/22 06:20:58;;;;;;;12.28;10.98;;;;;;;19.50;100.00;98375.70;2085219;85;21086;-83
2022/08/22 06:23:59;;;;;;;12.90;11.60;;;;;;;19.57;100.00;98365.75;2085130;85;21038;-83
2022/08/22 06:27:00;;;;;;;13.30;11.65;;;;;;;19.57;100.00;98381.67;2085167;85;21078;-84
2022/08/22 06:30:01;;;;;;;13.70;12.35;;;;;;;19.58;100.00;98379.83;2085266;85;21054;-83
2022/08/22 06:33:02;;;;;;;14.30;12.90;;;;;;;19.62;100.00;98382.78;2085226;85;20963;-84
2022/08/22 06:39:22;;;;;;;21.15;19.02;;;;;;;19.76;100.00;98391.48;2085141;85;21111;-83
2022/08/22 06:42:23;;;;;;;20.30;18.40;;;;;;;19.92;100.00;98390.32;2085467;85;21015;-83
2022/08/22 06:45:23;;;;;;;16.57;14.93;;;;;;;20.11;100.00;98389.75;2085351;85;21007;-83
2022/08/22 06:48:24;;;;;;;16.82;15.32;;;;;;;20.32;100.00;98386.81;2085541;85;21030;-84
2022/08/22 06:51:25;;;;;;;17.17;15.38;;;;;;;20.61;100.00;98383.92;2085127;85;21027;-85
2022/08/22 06:54:26;;;;;;;14.80;13.40;;;;;;;20.90;100.00;98384.43;2085216;85;20967;-88
2022/08/22 06:57:28;;;;;;;14.47;13.08;;;;;;;21.20;100.00;98393.16;2085045;85;21066;-85
2022/08/22 07:00:31;;;;;;;12.82;11.60;;;;;;;21.45;100.00;98399.22;2062163;85;21125;-85
2022/08/22 07:03:32;;;;;;;14.93;13.53;;;;;;;21.51;100.00;98395.53;2085340;85;21007;-87
2022/08/22 07:06:33;;;;;;;14.53;13.15;;;;;;;21.66;100.00;98399.59;2085247;85;21113;-86
2022/08/22 07:09:33;;;;;;;14.35;12.98;;;;;;;21.72;100.00;98397.77;2084914;85;21038;-86
2022/08/22 07:12:36;;;;;;;15.00;13.65;;;;;;;21.80;100.00;98402.61;2062030;85;21624;-85
2022/08/22 07:15:37;;;;;;;15.72;14.23;;;;;;;21.81;100.00;98400.21;2174586;81;21011;-85
2022/08/22 07:18:37;;;;;;;15.13;13.68;;;;;;;21.73;100.00;98403.37;2185207;81;20981;-87
2022/08/22 07:21:39;;;;;;;17.40;15.32;;;;;;;21.62;100.00;98395.06;2185285;80;20996;-86
2022/08/22 07:24:40;;;;;;;18.30;15.15;;;;;;;21.69;100.00;98399.09;2185218;80;20980;-88
2022/08/22 07:27:41;;;;;;;14.90;13.40;;;;;;;21.74;100.00;98399.11;2185232;81;20996;-86
2022/08/22 07:30:42;;;;;;;14.07;12.58;;;;;;;21.85;100.00;98398.62;2185219;80;21104;-84
2022/08/22 07:33:43;;;;;;;15.75;14.15;;;;;;;21.75;100.00;98402.57;2185363;81;21050;-84
2022/08/22 07:36:44;;;;;;;14.35;12.90;;;;;;;21.64;100.00;98400.39;2185203;81;21019;-84
2022/08/22 07:39:45;;;;;;;14.03;12.73;;;;;;;21.80;100.00;98402.61;2185462;81;21095;-86
2022/08/22 07:42:46;;;;;;;15.05;13.55;;;;;;;22.10;100.00;98397.42;2184871;81;21020;-88
2022/08/22 07:45:52;;;;;;;15.10;13.68;;;;;;;22.40;100.00;98390.06;2153590;81;21658;-86
2022/08/22 07:48:54;;;;;;;15.53;14.03;;;;;;;22.52;100.00;98399.67;2185230;81;21075;-86
2022/08/22 07:51:55;;;;;;;14.73;13.18;;;;;;;22.51;100.00;98396.73;2185035;81;21048;-86
2022/08/22 07:54:57;;;;;;;15.15;13.60;;;;;;;22.40;100.00;98394.56;2184909;81;21079;-86
2022/08/22 07:58:00;;;;;;;13.98;12.60;;;;;;;22.36;100.00;98396.16;2184958;81;21088;-86
2022/08/22 08:01:01;;;;;;;13.43;12.07;;;;;;;22.33;100.00;98400.17;2185238;80;21560;-87
2022/08/22 08:04:02;;;;;;;16.05;13.00;;;;;;;22.18;100.00;98407.31;2185333;81;21007;-85
2022/08/22 08:07:02;;;;;;;12.37;11.18;;;;;;;22.15;100.00;98404.65;2185350;81;21508;-85
2022/08/22 08:10:03;;;;;;;13.95;12.55;;;;;;;22.27;100.00;98407.08;2185274;80;21048;-85
2022/08/22 08:13:04;;;;;;;12.85;11.70;;;;;;;22.38;100.00;98402.03;2184912;81;21480;-85
2022/08/22 08:16:05;;;;;;;12.78;11.50;;;;;;;22.57;100.00;98399.66;2184973;81;21064;-85
2022/08/22 08:19:06;;;;;;;11.57;10.48;;;;;;;22.85;100.00;98396.52;2184703;81;20973;-85
2022/08/22 08:22:07;;;;;;;13.62;12.40;;;;;;;22.96;100.00;98409.35;2184506;81;21575;-85
2022/08/22 08:25:07;;;;;;;12.20;11.10;;;;;;;23.17;100.00;98402.92;2184800;81;21020;-85
2022/08/22 08:31:27;;;;;;;11.97;10.88;;;;;;;23.83;100.00;98394.78;2184953;81;21547;-85
2022/08/22 08:34:28;;;;;;;13.93;12.53;;;;;;;24.03;100.00;98397.91;2184811;81;21028;-87
2022/08/22 08:37:29;;;;;;;12.30;11.20;;;;;;;24.06;100.00;98394.70;2184914;81;21532;-86
2022/08/22 08:40:30;;;;;;;12.50;10.98;;;;;;;24.11;100.00;98394.66;2184863;81;20953;-87
2022/08/22 08:43:33;;;;;;;10.50;9.40;;;;;;;24.10;100.00;98392.27;2185076;81;21068;-86
2022/08/22 08:46:34;;;;;;;12.15;11.15;;;;;;;24.05;100.00;98388.30;2185231;81;21028;-88
2022/08/22 08:49:35;;;;;;;11.05;9.93;;;;;;;24.07;100.00;98388.27;2185505;80;21343;-89
2022/08/22 08:52:36;;;;;;;10.85;9.75;;;;;;;24.22;100.00;98391.39;2185265;81;21012;-86
2022/08/22 08:55:38;;;;;;;9.75;8.95;;;;;;;24.09;100.00;98398.69;2184747;81;21528;-87
2022/08/22 08:58:39;;;;;;;12.23;10.38;;;;;;;24.05;100.00;98393.10;2184723;81;20992;-87
2022/08/22 09:01:40;;;;;;;9.80;8.90;;;;;;;24.17;100.00;98399.45;2184719;81;21064;-86
2022/08/22 09:04:41;;;;;;;9.80;9.00;;;;;;;24.25;100.00;98395.41;2185057;81;21503;-86
2022/08/22 09:07:42;;;;;;;9.83;9.03;;;;;;;24.50;100.00;98389.11;2185225;81;21000;-85
2022/08/22 09:10:43;;;;;;;12.47;9.50;;;;;;;24.64;100.00;98386.09;2185236;80;21013;-88
2022/08/22 09:13:43;;;;;;;10.25;9.35;;;;;;;25.02;100.00;98393.84;2185228;81;21100;-84
2022/08/22 09:16:44;;;;;;;9.23;8.33;;;;;;;25.25;100.00;98386.95;2185208;81;20988;-86
2022/08/22 09:19:45;;;;;;;10.08;8.63;;;;;;;25.50;100.00;98385.33;2185175;80;21531;-87
2022/08/22 09:22:46;;;;;;;9.15;8.45;;;;;;;25.64;100.00;98398.07;2185092;81;20946;-86
2022/08/22 09:25:47;;;;;;;9.65;8.68;;;;;;;25.76;100.00;98383.74;2185092;81;21051;-87
2022/08/22 09:28:47;;;;;;;9.00;8.10;;;;;;;25.78;100.00;98381.02;2185204;81;20953;-87
2022/08/22 09:31:48;;;;;;;8.58;7.78;;;;;;;25.73;100.00;98374.40;2185714;81;21016;-86
2022/08/22 09:34:49;;;;;;;7.65;7.00;;;;;;;25.49;100.00;98381.06;2185221;81;21460;-86
2022/08/22 09:37:50;;;;;;;8.83;7.97;;;;;;;25.29;100.00;98379.14;2185217;81;20954;-87
2022/08/22 09:40:51;;;;;;;8.38;7.47;;;;;;;25.14;100.00;98378.73;2185179;81;21055;-86
2022/08/22 09:43:52;;;;;;;9.25;7.33;;;;;;;25.15;100.00;98381.16;2185087;81;20949;-86
2022/08/22 09:46:52;;;;;;;8.33;7.53;;;;;;;25.14;100.00;98378.73;2185159;81;20969;-85
2022/08/22 09:49:53;;;;;;;8.23;7.53;;;;;;;25.20;100.00;98375.73;2185174;80;21036;-85
2022/08/22 09:52:54;;;;;;;8.78;7.12;;;;;;;25.10;100.00;98381.73;2185237;81;20949;-87
2022/08/22 09:55:55;;;;;;;7.90;7.00;;;;;;;25.11;100.00;98382.78;2185469;81;21491;-86
2022/08/22 09:58:56;;;;;;;6.85;6.17;;;;;;;25.22;100.00;98372.77;2185154;80;20957;-86
2022/08/22 10:01:57;;;;;;;5.58;5.08;;;;;;;25.43;100.00;98380.08;2185314;81;21036;-85
2022/08/22 10:04:58;;;;;;;6.20;5.70;;;;;;;25.59;100.00;98372.65;2185198;81;21466;-85
2022/08/22 10:07:59;;;;;;;5.62;5.15;;;;;;;25.85;100.00;98375.32;2185371;81;21000;-86
2022/08/22 10:11:00;;;;;;;5.65;5.25;;;;;;;26.05;100.00;98377.73;2185785;80;21496;-87
2022/08/22 10:14:01;;;;;;;5.75;5.25;;;;;;;26.15;100.00;98378.69;2185402;81;21049;-86
2022/08/22 10:17:02;;;;;;;12.68;5.97;;;;;;;26.28;100.00;98374.77;2185210;81;21021;-85
2022/08/22 10:20:05;;;;;;;5.40;5.00;;;;;;;26.41;100.00;98369.77;2185561;81;21520;-85
2022/08/22 10:23:05;;;;;;;5.70;5.20;;;;;;;26.51;100.00;98373.64;2185326;81;21100;-87
2022/08/22 10:29:14;;;;;;;5.60;5.10;;;;;;;26.76;100.00;98373.26;2093236;84;21576;-86
2022/08/22 10:32:15;;;;;;;5.60;5.20;;;;;;;26.85;100.00;98377.42;2127414;84;21088;-84
2022/08/22 10:35:16;;;;;;;5.62;5.10;;;;;;;26.82;100.00;98380.70;2127456;84;21013;-85
2022/08/22 10:38:17;;;;;;;5.28;4.83;;;;;;;26.81;100.00;98380.45;2126856;84;21120;-85
2022/08/22 10:41:17;;;;;;;5.85;5.42;;;;;;;26.87;100.00;98374.68;2126762;84;21017;-86
2022/08/22 10:44:19;;;;;;;6.70;5.30;;;;;;;26.91;100.00;98381.08;2126908;84;21081;-86
2022/08/22 10:47:20;;;;;;;5.90;5.33;;;;;;;26.91;100.00;98381.62;2127225;84;21077;-85
2022/08/22 10:50:20;;;;;;;6.00;5.55;;;;;;;26.92;100.00;98375.16;2130088;83;21116;-85
2022/08/22 10:53:32;;;;;;;6.40;5.30;;;;;;;27.02;100.00;98376.87;2127251;84;21005;-88
2022/08/22 10:56:33;;;;;;;8.48;5.37;;;;;;;27.19;100.00;98372.56;2127338;84;21131;-88
2022/08/22 10:59:34;;;;;;;5.67;5.17;;;;;;;27.49;100.00;98364.48;2127302;84;21037;-86
2022/08/22 11:02:35;;;;;;;5.37;5.08;;;;;;;27.81;100.00;98364.16;2129977;84;21061;-83
2022/08/22 11:05:36;;;;;;;7.97;6.20;;;;;;;27.98;100.00;98365.69;2130551;84;21001;-85
2022/08/22 11:08:37;;;;;;;5.67;5.37;;;;;;;27.92;100.00;98365.54;2128468;84;21599;-87
2022/08/22 11:11:40;;;;;;;6.10;5.70;;;;;;;27.73;100.00;98371.04;2127720;84;21521;-86
2022/08/22 11:14:41;;;;;;;8.63;5.35;;;;;;;27.54;100.00;98370.31;2127002;84;21713;-85
2022/08/22 11:17:43;;;;;;;5.40;4.97;;;;;;;27.35;100.00;98365.58;2127098;84;21188;-86
2022/08/22 11:20:44;;;;;;;6.05;5.55;;;;;;;27.24;100.00;98358.77;2127398;84;21268;-86
2022/08/22 11:23:44;;;;;;;5.97;5.47;;;;;;;27.14;100.00;98363.23;2127945;84;21694;-86
2022/08/22 11:26:45;;;;;;;5.58;5.17;;;;;;;27.18;100.00;98358.09;2179376;81;21024;-86
2022/08/22 11:29:47;;;;;;;6.33;5.87;;;;;;;27.04;100.00;98355.36;2185392;81;21104;-86
2022/08/22 11:32:48;;;;;;;8.45;5.75;;;;;;;26.95;100.00;98361.13;2184622;81;20996;-86
2022/08/22 11:35:49;;;;;;;5.35;4.90;;;;;;;27.00;100.00;98358.37;2185356;81;21048;-86
2022/08/22 11:38:50;;;;;;;6.30;5.70;;;;;;;27.05;100.00;98357.50;2184999;80;21029;-85
2022/08/22 11:41:51;;;;;;;6.67;6.08;;;;;;;27.03;100.00;98361.83;2185286;81;21016;-85
2022/08/22 11:44:52;;;;;;;7.03;6.53;;;;;;;26.91;100.00;98362.27;2184926;80;21009;-86
2022/08/22 11:47:53;;;;;;;6.87;6.30;;;;;;;26.69;100.00;98359.41;2185313;81;21518;-85
2022/08/22 11:50:54;;;;;;;6.08;5.55;;;;;;;26.48;100.00;98362.95;2185154;81;21020;-85
2022/08/22 11:53:55;;;;;;;5.33;4.87;;;;;;;26.47;100.00;98365.39;2185341;81;21552;-86
2022/08/22 11:56:56;;;;;;;5.60;5.20;;;;;;;26.55;100.00;98365.28;2185418;80;20930;-85
2022/08/22 12:00:00;;;;;;;6.58;5.95;;;;;;;26.32;100.00;98377.10;2185293;81;21039;-85
2022/08/22 12:02:59;;;;;;;6.83;6.05;;;;;;;26.01;100.00;98395.51;2184864;81;21020;-84
2022/08/22 12:06:00;;;;;;;6.83;5.62;;;;;;;25.67;100.00;98384.09;2185341;81;21593;-86
2022/08/22 12:09:01;;;;;;;7.45;6.70;;;;;;;25.37;100.00;98380.66;2185185;81;21059;-84
2022/08/22 12:12:02;;;;;;;6.97;6.37;;;;;;;25.09;100.00;98379.59;2185151;81;21028;-83
2022/08/22 12:15:03;;;;;;;7.78;7.10;;;;;;;24.62;100.00;98371.65;2185306;81;21008;-84
2022/08/22 12:18:04;;;;;;;9.08;6.67;;;;;;;24.31;100.00;98369.70;2185289;81;21571;-86
2022/08/22 12:21:04;;;;;;;7.12;6.45;;;;;;;24.10;100.00;98374.34;2185500;81;21096;-84
2022/08/22 12:24:05;;;;;;;7.12;6.50;;;;;;;23.78;100.00;98372.09;2185111;81;21041;-82
2022/08/22 12:27:06;;;;;;;7.28;6.58;;;;;;;23.60;100.00;98371.89;2185905;81;20993;-84
2022/08/22 12:30:07;;;;;;;7.97;7.15;;;;;;;23.43;100.00;98381.52;2185279;81;21096;-84
2022/08/22 12:33:09;;;;;;;9.65;8.75;;;;;;;23.41;100.00;98384.47;2185460;80;21453;-83
2022/08/22 12:36:10;;;;;;;9.90;8.88;;;;;;;23.39;100.00;98384.45;2185176;81;20993;-83
2022/08/22 12:39:10;;;;;;;9.85;8.95;;;;;;;23.33;100.00;98374.33;2185399;81;21020;-84
2022/08/22 12:42:11;;;;;;;10.20;8.83;;;;;;;23.25;100.00;98374.34;2185281;81;21020;-84
2022/08/22 12:45:12;;;;;;;9.38;8.43;;;;;;;23.34;100.00;98365.25;2185329;81;21453;-85
2022/08/22 12:48:13;;;;;;;9.43;8.53;;;;;;;23.51;100.00;98359.59;2185294;81;20990;-85
2022/08/22 12:51:14;;;;;;;9.93;9.00;;;;;;;23.67;100.00;98357.15;2185197;81;21037;-83
2022/08/22 12:54:15;;;;;;;7.75;7.05;;;;;;;23.82;100.00;98352.29;2185002;81;21087;-83
2022/08/22 12:57:16;;;;;;;9.40;8.13;;;;;;;23.89;100.00;98355.47;2185110;81;21012;-84
2022/08/22 13:00:17;;;;;;;11.70;8.03;;;;;;;23.95;100.00;98359.70;2184620;80;21312;-84
2022/08/22 13:03:18;;;;;;;10.10;8.90;;;;;;;24.00;100.00;98371.72;2184726;81;21008;-83
2022/08/22 13:06:18;;;;;;;8.48;7.50;;;;;;;24.09;100.00;98366.59;2184739;81;21028;-83
2022/08/22 13:09:21;;;;;;;9.23;8.33;;;;;;;24.12;100.00;98372.72;2184261;80;21040;-84
2022/08/22 13:12:22;;;;;;;9.15;8.13;;;;;;;24.24;100.00;98370.53;2185350;81;21017;-84
2022/08/22 13:15:23;;;;;;;9.68;8.80;;;;;;;24.38;100.00;98376.09;2184976;81;21052;-83
2022/08/22 13:18:24;;;;;;;9.53;8.63;;;;;;;24.47;100.00;98369.61;2185225;81;21000;-84
2022/08/22 13:21:26;;;;;;;9.95;8.95;;;;;;;24.51;100.00;98366.12;2184835;81;21032;-84
2022/08/22 13:24:26;;;;;;;9.43;8.63;;;;;;;24.47;100.00;98360.25;2185219;81;20973;-84
2022/08/22 13:27:30;;;;;;;11.30;9.10;;;;;;;24.44;100.00;98362.15;2185160;81;21036;-85
2022/08/22 13:30:30;;;;;;;9.90;7.97;;;;;;;24.39;100.00;98366.44;2184964;80;21029;-84
2022/08/22 13:33:31;;;;;;;17.15;8.50;;;;;;;24.34;100.00;98373.72;2185457;81;21100;-89
2022/08/22 13:36:31;;;;;;;10.48;9.48;;;;;;;24.30;100.00;98382.78;2185513;81;20957;-86
2022/08/22 13:39:34;;;;;;;12.18;9.95;;;;;;;24.22;100.00;98382.03;2153869;81;21025;-86
2022/08/22 13:42:35;;;;;;;15.50;11.48;;;;;;;24.19;100.00;98386.59;2185637;81;21055;-86
2022/08/22 13:45:35;;;;;;;20.40;14.40;;;;;;;24.12;100.00;98393.58;2185397;81;20977;-87
2022/08/22 13:48:36;;;;;;;12.50;10.32;;;;;;;23.99;100.00;98412.91;2185601;81;22077;-85
2022/08/22 13:51:38;;;;;;;13.38;9.35;;;;;;;23.86;100.00;98425.50;2185723;81;21031;-85
2022/08/22 13:54:39;;;;;;;9.73;8.73;;;;;;;23.75;100.00;98423.94;2185471;81;21035;-85
2022/08/22 13:57:40;;;;;;;13.68;8.23;;;;;;;23.63;100.00;98419.44;2185419;81;20965;-84
2022/08/22 14:00:41;;;;;;;13.65;9.33;;;;;;;23.54;100.00;98419.96;2185300;81;21056;-84
2022/08/22 14:03:44;;;;;;;9.43;8.53;;;;;;;23.36;100.00;98409.84;2185023;81;21488;-84
2022/08/22 14:06:44;;;;;;;10.05;8.55;;;;;;;23.24;100.00;98402.13;2185592;81;21008;-85
2022/08/22 14:09:45;;;;;;;9.05;8.30;;;;;;;23.18;100.00;98400.52;2185666;80;21584;-84